createdAt,value
2023-02-20T00:00:01.737Z,7.97
2023-02-20T00:02:49.318Z,8.67
2023-02-20T00:05:36.399Z,6.37
2023-02-20T00:08:23.449Z,5.30
2023-02-20T00:11:09.721Z,5.60
2023-02-20T00:13:56.137Z,6.00
2023-02-20T00:16:42.492Z,6.13
2023-02-20T00:19:29.016Z,5.83
2023-02-20T00:22:15.776Z,5.73
2023-02-20T00:25:02.294Z,4.37
2023-02-20T00:27:48.838Z,6.60
2023-02-20T00:30:35.238Z,5.13
2023-02-20T00:33:21.816Z,8.20
2023-02-20T00:36:14.972Z,7.40
2023-02-20T00:39:01.185Z,4.43
2023-02-20T00:41:47.527Z,4.63
2023-02-20T00:44:34.680Z,6.07
2023-02-20T00:47:21.016Z,4.03
2023-02-20T00:50:08.507Z,7.60
2023-02-20T00:52:54.884Z,4.97
2023-02-20T00:55:41.380Z,4.13
2023-02-20T00:58:27.796Z,4.27
2023-02-20T01:01:16.446Z,4.57
2023-02-20T01:04:03.063Z,5.03
2023-02-20T01:06:49.365Z,4.63
2023-02-20T01:09:35.730Z,3.93
2023-02-20T01:12:22.165Z,5.07
2023-02-20T01:15:09.139Z,9.37
2023-02-20T01:17:55.586Z,5.00
2023-02-20T01:20:44.133Z,9.40
2023-02-20T01:23:30.379Z,7.50
2023-02-20T01:26:17.118Z,5.07
2023-02-20T01:29:04.540Z,8.40
2023-02-20T01:31:52.296Z,7.57
2023-02-20T01:34:39.492Z,6.07
2023-02-20T01:37:25.652Z,8.70
2023-02-20T01:40:18.105Z,9.87
2023-02-20T01:43:04.717Z,15.03
2023-02-20T01:45:52.181Z,3.50
2023-02-20T01:48:38.615Z,4.97
2023-02-20T01:51:25.643Z,4.47
2023-02-20T01:54:16.764Z,6.17
2023-02-20T01:57:08.848Z,7.57
2023-02-20T02:00:02.822Z,6.90
2023-02-20T02:02:55.026Z,7.13
2023-02-20T02:05:48.633Z,5.33
2023-02-20T02:08:37.751Z,8.63
2023-02-20T02:11:25.827Z,8.87
2023-02-20T02:14:11.944Z,5.63
2023-02-20T02:17:42.941Z,17.27
2023-02-20T02:20:39.432Z,5.33
2023-02-20T02:23:49.455Z,7.27
2023-02-20T02:27:12.995Z,7.03
2023-02-20T02:30:06.192Z,6.73
2023-02-20T02:33:32.056Z,3.70
2023-02-20T02:36:44.066Z,5.33
2023-02-20T02:40:12.847Z,11.23
2023-02-20T02:43:31.733Z,4.87
2023-02-20T02:46:34.997Z,5.87
2023-02-20T02:49:27.727Z,8.60
2023-02-20T02:52:35.732Z,4.30
2023-02-20T02:55:27.510Z,8.23
2023-02-20T02:58:15.187Z,8.37
2023-02-20T03:01:02.721Z,6.37
2023-02-20T03:03:51.599Z,7.20
2023-02-20T03:06:42.412Z,5.53
2023-02-20T03:09:34.885Z,9.63
2023-02-20T03:12:22.695Z,5.93
2023-02-20T03:15:34.963Z,10.63
2023-02-20T03:18:35.694Z,6.50
2023-02-20T03:21:25.945Z,9.60
2023-02-20T03:24:15.131Z,6.23
2023-02-20T03:27:03.236Z,9.90
2023-02-20T03:29:54.894Z,5.53
2023-02-20T03:33:03.538Z,11.27
2023-02-20T03:36:12.116Z,7.47
2023-02-20T03:39:22.619Z,9.40
2023-02-20T03:42:31.504Z,10.47
2023-02-20T03:45:26.746Z,6.20
2023-02-20T03:48:42.267Z,9.13
2023-02-20T03:51:29.151Z,8.20
2023-02-20T03:54:21.527Z,7.63
2023-02-20T03:57:13.280Z,6.93
2023-02-20T04:00:03.392Z,6.90
2023-02-20T04:02:54.270Z,6.47
2023-02-20T04:05:46.244Z,5.47
2023-02-20T04:08:43.915Z,5.90
2023-02-20T04:11:45.609Z,6.33
2023-02-20T04:14:32.850Z,5.37
2023-02-20T04:17:26.093Z,15.33
2023-02-20T04:20:13.113Z,11.03
2023-02-20T04:23:13.092Z,6.27
2023-02-20T04:26:08.498Z,6.93
2023-02-20T04:28:57.594Z,5.73
2023-02-20T04:31:44.315Z,4.77
2023-02-20T04:34:32.071Z,4.10
2023-02-20T04:37:21.033Z,4.57
2023-02-20T04:40:12.812Z,5.13
2023-02-20T04:42:59.140Z,5.63
2023-02-20T04:45:45.892Z,6.57
2023-02-20T04:48:32.807Z,6.53
2023-02-20T04:51:20.291Z,11.33
2023-02-20T04:54:07.895Z,8.57
2023-02-20T04:56:54.553Z,7.43
2023-02-20T04:59:42.494Z,7.50
2023-02-20T05:02:30.083Z,5.40
2023-02-20T05:05:23.777Z,7.90
2023-02-20T05:08:09.893Z,14.90
2023-02-20T05:10:56.375Z,8.13
2023-02-20T05:13:42.617Z,7.27
2023-02-20T05:16:28.934Z,5.43
2023-02-20T05:19:15.504Z,10.83
2023-02-20T05:22:20.005Z,6.17
2023-02-20T05:25:07.556Z,9.80
2023-02-20T05:27:53.860Z,9.63
2023-02-20T05:30:40.624Z,8.33
2023-02-20T05:33:27.548Z,9.00
2023-02-20T05:36:14.221Z,7.00
2023-02-20T05:39:00.818Z,10.03
2023-02-20T05:41:49.119Z,7.87
2023-02-20T05:44:36.255Z,10.97
2023-02-20T05:47:22.418Z,12.57
2023-02-20T05:50:08.795Z,7.57
2023-02-20T05:52:55.046Z,10.20
2023-02-20T05:55:41.795Z,11.33
2023-02-20T05:58:28.059Z,8.63
2023-02-20T06:01:19.847Z,8.60
2023-02-20T06:04:06.305Z,12.70
2023-02-20T06:06:53.009Z,11.97
2023-02-20T06:09:44.196Z,12.20
2023-02-20T06:12:30.404Z,10.30
2023-02-20T06:15:16.944Z,8.83
2023-02-20T06:18:03.526Z,14.33
2023-02-20T06:20:49.666Z,8.40
2023-02-20T06:23:40.118Z,7.57
2023-02-20T06:26:26.518Z,10.43
2023-02-20T06:29:15.692Z,10.43
2023-02-20T06:32:02.102Z,11.73
2023-02-20T06:34:48.892Z,8.70
2023-02-20T06:37:35.079Z,11.67
2023-02-20T06:40:21.733Z,8.37
2023-02-20T06:43:08.056Z,11.47
2023-02-20T06:45:54.618Z,6.50
2023-02-20T06:48:49.470Z,9.23
2023-02-20T06:51:36.799Z,7.37
2023-02-20T06:54:23.064Z,9.27
2023-02-20T06:57:09.497Z,9.17
2023-02-20T06:59:56.191Z,8.27
2023-02-20T07:02:42.846Z,8.83
2023-02-20T07:05:29.501Z,10.87
2023-02-20T07:08:15.936Z,26.53
2023-02-20T07:11:02.448Z,8.83
2023-02-20T07:13:48.958Z,9.00
2023-02-20T07:16:35.484Z,14.10
2023-02-20T07:19:21.876Z,12.07
2023-02-20T07:22:07.998Z,12.27
2023-02-20T07:24:55.366Z,10.23
2023-02-20T07:27:41.985Z,11.37
2023-02-20T07:30:28.177Z,10.07
2023-02-20T07:33:15.998Z,11.93
2023-02-20T07:36:02.626Z,12.00
2023-02-20T07:39:00.258Z,8.83
2023-02-20T07:41:46.751Z,8.47
2023-02-20T07:45:02.277Z,5.83
2023-02-20T07:47:48.772Z,8.13
2023-02-20T07:50:35.417Z,8.90
2023-02-20T07:53:21.874Z,6.37
2023-02-20T07:56:08.238Z,9.90
2023-02-20T07:58:54.575Z,4.13
2023-02-20T08:01:40.848Z,8.13
2023-02-20T08:04:27.647Z,5.60
2023-02-20T08:07:14.379Z,13.33
2023-02-20T08:10:00.648Z,4.30
2023-02-20T08:12:48.155Z,4.60
2023-02-20T08:15:34.486Z,13.90
2023-02-20T08:18:23.830Z,11.17
2023-02-20T08:21:10.337Z,4.80
2023-02-20T08:23:57.280Z,6.23
2023-02-20T08:26:48.645Z,5.03
2023-02-20T08:29:35.164Z,4.93
2023-02-20T08:32:21.567Z,7.37
2023-02-20T08:35:08.223Z,5.90
2023-02-20T08:37:54.734Z,4.30
2023-02-20T08:40:41.130Z,4.87
2023-02-20T08:43:28.334Z,6.30
2023-02-20T08:46:15.440Z,3.93
2023-02-20T08:49:02.377Z,2.90
2023-02-20T08:51:53.698Z,4.13
2023-02-20T08:54:40.289Z,6.27
2023-02-20T08:57:26.743Z,5.67
2023-02-20T09:00:19.290Z,9.77
2023-02-20T09:03:07.635Z,5.63
2023-02-20T09:05:54.370Z,3.33
2023-02-20T09:08:40.858Z,2.10
2023-02-20T09:11:27.403Z,4.27
2023-02-20T09:14:14.064Z,5.87
2023-02-20T09:17:00.296Z,3.20
2023-02-20T09:19:46.540Z,4.77
2023-02-20T09:22:33.041Z,4.80
2023-02-20T09:25:19.895Z,4.87
2023-02-20T09:28:06.245Z,3.77
2023-02-20T09:30:54.808Z,4.50
2023-02-20T09:33:51.133Z,4.03
2023-02-20T09:36:37.842Z,2.60
2023-02-20T09:39:23.975Z,3.70
2023-02-20T09:42:38.029Z,3.43
2023-02-20T09:45:33.448Z,2.13
2023-02-20T09:48:44.506Z,9.00
2023-02-20T09:51:34.275Z,3.20
2023-02-20T09:54:54.354Z,2.80
2023-02-20T09:57:41.757Z,2.20
2023-02-20T10:00:32.101Z,4.80
2023-02-20T10:04:04.737Z,4.30
2023-02-20T10:06:54.979Z,4.40
2023-02-20T10:09:42.764Z,3.10
2023-02-20T10:12:35.752Z,4.63
2023-02-20T10:15:53.555Z,2.23
2023-02-20T10:18:46.148Z,3.07
2023-02-20T10:22:01.681Z,3.10
2023-02-20T10:25:11.732Z,3.97
2023-02-20T10:28:11.180Z,1.47
2023-02-20T10:31:17.529Z,2.60
2023-02-20T10:34:12.757Z,6.57
2023-02-20T10:37:10.466Z,3.03
2023-02-20T10:40:18.929Z,1.50
2023-02-20T10:43:08.024Z,2.50
2023-02-20T10:46:01.195Z,3.67
2023-02-20T10:48:47.814Z,3.40
2023-02-20T10:51:44.869Z,2.77
2023-02-20T10:54:42.199Z,2.03
2023-02-20T10:57:35.452Z,2.60
2023-02-20T11:00:33.605Z,4.10
2023-02-20T11:03:36.976Z,3.80
2023-02-20T11:06:30.372Z,5.63
2023-02-20T11:09:17.187Z,1.90
2023-02-20T11:12:03.822Z,1.20
2023-02-20T11:14:52.214Z,5.57
2023-02-20T11:17:40.195Z,2.70
2023-02-20T11:20:32.871Z,2.93
2023-02-20T11:23:39.391Z,3.13
2023-02-20T11:26:33.234Z,4.63
2023-02-20T11:29:22.564Z,3.97
2023-02-20T11:32:27.573Z,3.93
2023-02-20T11:35:16.959Z,5.03
2023-02-20T11:38:18.423Z,3.37
2023-02-20T11:41:11.991Z,3.73
2023-02-20T11:44:25.439Z,3.73
2023-02-20T11:47:19.993Z,7.10
2023-02-20T11:50:20.450Z,3.63
2023-02-20T11:53:08.850Z,3.73
2023-02-20T11:56:15.574Z,4.40
2023-02-20T11:59:27.105Z,2.70
2023-02-20T12:02:17.056Z,3.40
2023-02-20T12:05:14.094Z,4.10
2023-02-20T12:08:00.665Z,6.87
2023-02-20T12:10:50.371Z,4.67
2023-02-20T12:13:40.968Z,2.73
2023-02-20T12:16:45.893Z,2.87
2023-02-20T12:19:48.582Z,2.83
2023-02-20T12:22:37.692Z,1.27
2023-02-20T12:25:34.701Z,2.30
2023-02-20T12:28:45.652Z,1.80
2023-02-20T12:31:44.183Z,1.10
2023-02-20T12:34:47.656Z,4.17
2023-02-20T12:37:41.889Z,3.97
2023-02-20T12:40:28.164Z,2.00
2023-02-20T12:43:47.718Z,4.10
2023-02-20T12:46:40.025Z,1.30
2023-02-20T12:49:42.391Z,2.13
2023-02-20T12:52:58.385Z,1.23
2023-02-20T12:56:03.325Z,1.30
2023-02-20T12:59:17.075Z,2.93
2023-02-20T13:02:18.412Z,2.70
2023-02-20T13:05:08.035Z,2.97
2023-02-20T13:08:03.869Z,2.07
2023-02-20T13:11:03.972Z,3.07
2023-02-20T13:14:08.830Z,1.37
2023-02-20T13:17:13.624Z,1.40
2023-02-20T13:20:19.608Z,1.33
2023-02-20T13:23:27.814Z,2.03
2023-02-20T13:26:33.019Z,4.50
2023-02-20T13:29:23.829Z,2.47
2023-02-20T13:32:31.069Z,3.27
2023-02-20T13:35:41.944Z,0.93
2023-02-20T13:38:29.217Z,2.53
2023-02-20T13:41:15.367Z,3.17
2023-02-20T13:44:29.643Z,3.70
2023-02-20T13:47:26.920Z,1.77
2023-02-20T13:50:29.897Z,1.10
2023-02-20T13:53:16.398Z,2.23
2023-02-20T13:56:02.955Z,3.03
2023-02-20T13:58:50.907Z,3.23
2023-02-20T14:01:57.520Z,2.70
2023-02-20T14:04:55.790Z,2.40
2023-02-20T14:07:45.515Z,3.53
2023-02-20T14:10:37.727Z,3.93
2023-02-20T14:13:39.067Z,7.07
2023-02-20T14:16:41.418Z,2.13
2023-02-20T14:19:29.805Z,5.47
2023-02-20T14:22:19.333Z,1.80
2023-02-20T14:25:11.668Z,2.07
2023-02-20T14:28:12.794Z,2.33
2023-02-20T14:31:21.259Z,1.40
2023-02-20T14:34:19.819Z,3.43
2023-02-20T14:37:41.040Z,3.80
2023-02-20T14:40:34.763Z,5.13
2023-02-20T14:43:24.327Z,2.33
2023-02-20T14:46:47.280Z,2.00
2023-02-20T14:49:33.902Z,3.73
2023-02-20T14:52:23.949Z,2.13
2023-02-20T14:55:16.842Z,1.40
2023-02-20T14:58:28.166Z,2.47
2023-02-20T15:01:26.653Z,2.90
2023-02-20T15:04:16.093Z,1.60
2023-02-20T15:07:07.611Z,12.47
2023-02-20T15:09:57.548Z,3.27
2023-02-20T15:12:44.266Z,0.90
2023-02-20T15:15:36.433Z,1.67
2023-02-20T15:18:36.105Z,1.90
2023-02-20T15:21:41.044Z,3.57
2023-02-20T15:24:36.403Z,1.97
2023-02-20T15:27:24.336Z,4.93
2023-02-20T15:30:17.926Z,4.73
2023-02-20T15:33:08.914Z,2.40
2023-02-20T15:35:56.220Z,3.00
2023-02-20T15:38:42.580Z,3.13
2023-02-20T15:41:28.736Z,7.03
2023-02-20T15:44:16.459Z,6.03
2023-02-20T15:47:02.736Z,3.90
2023-02-20T15:49:49.158Z,3.97
2023-02-20T15:52:35.760Z,2.20
2023-02-20T15:55:23.091Z,4.00
2023-02-20T15:58:37.293Z,9.63
2023-02-20T16:01:23.591Z,3.70
2023-02-20T16:04:15.817Z,10.33
2023-02-20T16:07:02.294Z,5.70
2023-02-20T16:09:48.597Z,6.70
2023-02-20T16:12:35.209Z,4.00
2023-02-20T16:15:22.006Z,2.40
2023-02-20T16:18:09.753Z,4.43
2023-02-20T16:20:56.409Z,2.80
2023-02-20T16:23:45.523Z,3.37
2023-02-20T16:26:35.756Z,2.43
2023-02-20T16:29:31.343Z,1.37
2023-02-20T16:32:22.784Z,2.13
2023-02-20T16:35:12.597Z,3.00
2023-02-20T16:37:59.164Z,1.53
2023-02-20T16:40:45.758Z,1.30
2023-02-20T16:43:32.393Z,1.90
2023-02-20T16:46:29.459Z,4.30
2023-02-20T16:49:19.106Z,2.67
2023-02-20T16:52:18.099Z,2.50
2023-02-20T16:55:32.501Z,1.83
2023-02-20T16:58:20.227Z,3.33
2023-02-20T17:01:06.627Z,4.33
2023-02-20T17:03:53.103Z,3.97
2023-02-20T17:06:39.393Z,3.60
2023-02-20T17:09:31.024Z,5.77
2023-02-20T17:12:27.720Z,2.10
2023-02-20T17:15:16.501Z,1.63
2023-02-20T17:18:06.434Z,2.60
2023-02-20T17:20:52.816Z,3.93
2023-02-20T17:23:39.534Z,2.50
2023-02-20T17:26:26.877Z,6.20
2023-02-20T17:29:13.216Z,2.83
2023-02-20T17:31:59.529Z,1.67
2023-02-20T17:34:46.195Z,2.20
2023-02-20T17:37:34.581Z,1.60
2023-02-20T17:40:21.215Z,2.80
2023-02-20T17:43:07.770Z,3.47
2023-02-20T17:45:53.964Z,3.13
2023-02-20T17:48:41.232Z,4.10
2023-02-20T17:51:27.747Z,2.47
2023-02-20T17:54:14.926Z,2.07
2023-02-20T17:57:01.966Z,3.00
2023-02-20T17:59:51.992Z,2.83
2023-02-20T18:02:39.541Z,3.80
2023-02-20T18:05:26.184Z,7.53
2023-02-20T18:08:12.419Z,5.33
2023-02-20T18:10:59.085Z,5.67
2023-02-20T18:13:45.837Z,6.07
2023-02-20T18:16:32.324Z,6.87
2023-02-20T18:19:19.226Z,7.23
2023-02-20T18:22:05.801Z,8.10
2023-02-20T18:24:52.653Z,11.03
2023-02-20T18:27:39.317Z,10.50
2023-02-20T18:30:25.777Z,10.50
2023-02-20T18:33:12.253Z,12.70
2023-02-20T18:36:07.878Z,5.27
2023-02-20T18:38:54.574Z,6.70
2023-02-20T18:41:41.392Z,5.43
2023-02-20T18:44:27.716Z,6.53
2023-02-20T18:47:14.325Z,5.30
2023-02-20T18:50:00.576Z,6.27
2023-02-20T18:52:48.531Z,5.97
2023-02-20T18:55:35.049Z,6.90
2023-02-20T18:58:21.575Z,5.70
2023-02-20T19:01:08.235Z,8.40
2023-02-20T19:03:54.539Z,7.23
2023-02-20T19:06:43.932Z,5.90
2023-02-20T19:09:34.221Z,11.90
2023-02-20T19:12:20.916Z,12.73
2023-02-20T19:15:07.463Z,13.67
2023-02-20T19:17:54.648Z,11.60
2023-02-20T19:20:41.289Z,10.67
2023-02-20T19:23:27.804Z,11.90
2023-02-20T19:26:14.802Z,9.30
2023-02-20T19:31:52.680Z,10.73
2023-02-20T19:34:39.145Z,10.03
2023-02-20T19:37:25.487Z,9.53
2023-02-20T19:40:12.229Z,9.57
2023-02-20T19:42:58.671Z,9.47
2023-02-20T19:45:45.257Z,15.17
2023-02-20T19:48:32.006Z,8.50
2023-02-20T19:51:20.229Z,11.03
2023-02-20T19:54:07.716Z,10.47
2023-02-20T19:57:01.045Z,13.87
2023-02-20T19:59:47.468Z,11.67
2023-02-20T20:02:33.712Z,12.17
2023-02-20T20:05:20.555Z,11.40
2023-02-20T20:08:06.953Z,10.17
2023-02-20T20:10:53.252Z,7.10
2023-02-20T20:13:39.453Z,7.90
2023-02-20T20:16:26.019Z,6.57
2023-02-20T20:19:12.820Z,7.00
2023-02-20T20:21:59.445Z,8.73
2023-02-20T20:24:45.634Z,6.23
2023-02-20T20:27:32.283Z,7.73
2023-02-20T20:30:26.712Z,9.77
2023-02-20T20:33:13.067Z,9.90
2023-02-20T20:35:59.361Z,7.63
2023-02-20T20:38:46.124Z,5.77
2023-02-20T20:41:44.103Z,8.47
2023-02-20T20:44:31.343Z,11.07
2023-02-20T20:47:19.136Z,6.20
2023-02-20T20:50:06.303Z,7.37
2023-02-20T20:52:53.532Z,9.73
2023-02-20T20:55:39.872Z,7.63
2023-02-20T20:58:26.073Z,5.90
2023-02-20T21:01:13.095Z,5.97
2023-02-20T21:03:59.517Z,6.67
2023-02-20T21:06:46.096Z,9.40
2023-02-20T21:09:32.443Z,8.33
2023-02-20T21:12:18.969Z,10.27
2023-02-20T21:15:07.920Z,8.37
2023-02-20T21:17:54.643Z,8.30
2023-02-20T21:20:40.918Z,11.80
2023-02-20T21:23:27.388Z,10.00
2023-02-20T21:26:14.020Z,10.53
2023-02-20T21:29:00.550Z,9.63
2023-02-20T21:31:47.494Z,8.67
2023-02-20T21:34:34.107Z,11.47
2023-02-20T21:37:20.391Z,11.33
2023-02-20T21:40:06.894Z,8.00
2023-02-20T21:43:12.206Z,9.97
2023-02-20T21:45:58.877Z,11.13
2023-02-20T21:48:45.390Z,10.73
2023-02-20T21:51:32.003Z,11.53
2023-02-20T21:54:19.651Z,11.33
2023-02-20T21:57:06.807Z,9.77
2023-02-20T21:59:53.286Z,10.50
2023-02-20T22:02:40.585Z,10.17
2023-02-20T22:05:26.763Z,12.80
2023-02-20T22:08:31.943Z,11.40
2023-02-20T22:11:36.762Z,12.13
2023-02-20T22:14:41.498Z,9.83
2023-02-20T22:17:46.554Z,11.67
2023-02-20T22:20:51.478Z,7.10
2023-02-20T22:23:56.591Z,7.33
2023-02-20T22:27:01.586Z,13.80
2023-02-20T22:30:06.536Z,9.57
2023-02-20T22:33:12.281Z,9.20
2023-02-20T22:36:17.440Z,9.43
2023-02-20T22:39:24.088Z,11.13
2023-02-20T22:42:34.525Z,11.87
2023-02-20T22:45:40.459Z,8.50
2023-02-20T22:48:45.807Z,10.60
2023-02-20T22:51:50.989Z,9.63
2023-02-20T22:55:04.701Z,9.53
2023-02-20T22:58:10.300Z,8.30
2023-02-20T23:01:15.632Z,9.10
2023-02-20T23:04:22.149Z,7.20
2023-02-20T23:07:27.135Z,9.03
2023-02-20T23:10:32.868Z,8.37
2023-02-20T23:13:38.230Z,10.43
2023-02-20T23:16:43.840Z,9.40
2023-02-20T23:19:48.807Z,11.33
2023-02-20T23:22:53.710Z,12.17
2023-02-20T23:25:58.737Z,11.57
2023-02-20T23:29:04.302Z,11.07
2023-02-20T23:32:09.538Z,12.30
2023-02-20T23:35:14.556Z,9.80
2023-02-20T23:38:21.045Z,9.67
2023-02-20T23:41:26.813Z,9.73
2023-02-20T23:44:31.756Z,8.73
2023-02-20T23:47:36.583Z,11.27
2023-02-20T23:50:41.658Z,8.33
2023-02-20T23:53:46.714Z,7.20
2023-02-20T23:56:51.832Z,12.10
2023-02-20T23:59:56.642Z,7.63
